createdAt,value
2018-03-22T03:33:41.329Z,17.91
2018-03-22T03:36:14.517Z,17.94
2018-03-22T03:38:48.127Z,18.05
2018-03-22T03:41:23.938Z,17.92
2018-03-22T03:43:56.277Z,18.04
2018-03-22T03:46:28.532Z,18.03
2018-03-22T03:49:00.688Z,18.00
2018-03-22T03:51:32.541Z,18.03
2018-03-22T03:54:04.627Z,17.87
2018-03-22T03:56:35.420Z,17.94
2018-03-22T03:59:07.989Z,17.98
2018-03-22T04:01:39.639Z,17.83
2018-03-22T04:04:10.416Z,17.74
2018-03-22T04:09:07.599Z,17.70
2018-03-22T04:11:40.304Z,17.76
2018-03-22T04:14:14.556Z,17.74
2018-03-22T04:16:46.294Z,17.76
2018-03-22T04:19:18.637Z,17.68
2018-03-22T04:26:21.575Z,17.65
2018-03-22T04:32:35.665Z,17.63
2018-03-22T04:35:06.643Z,17.66
2018-03-22T04:37:37.551Z,17.71
2018-03-22T04:40:09.679Z,17.54
2018-03-22T04:42:40.599Z,17.70
2018-03-22T04:45:12.681Z,17.63
2018-03-22T04:47:43.665Z,17.68
2018-03-22T04:50:14.632Z,17.63
2018-03-22T04:52:46.751Z,17.54
2018-03-22T04:55:17.592Z,17.38
2018-03-22T04:57:49.655Z,16.94
2018-03-22T05:05:45.650Z,16.88
2018-03-22T05:08:18.254Z,16.90
2018-03-22T05:10:50.666Z,16.83
2018-03-22T05:13:21.652Z,16.75
2018-03-22T05:15:53.649Z,16.84
2018-03-22T05:21:53.934Z,16.84
2018-03-22T05:24:24.676Z,17.00
2018-03-22T05:28:28.753Z,16.89
2018-03-22T05:32:49.307Z,16.95
2018-03-22T05:35:21.642Z,16.98
2018-03-22T05:37:53.558Z,16.97
2018-03-22T05:40:26.643Z,17.00
2018-03-22T05:42:57.585Z,16.91
2018-03-22T05:45:31.681Z,16.86
2018-03-22T05:48:03.576Z,16.83
